createdAt,value
2023-03-25T00:01:15.420Z,36.81
2023-03-25T00:03:43.421Z,36.91
2023-03-25T00:06:12.244Z,36.93
2023-03-25T00:08:39.354Z,36.87
2023-03-25T00:11:06.963Z,37.04
2023-03-25T00:13:34.135Z,36.95
2023-03-25T00:16:02.611Z,36.87
2023-03-25T00:18:33.660Z,36.86
2023-03-25T00:21:02.814Z,36.89
2023-03-25T00:23:30.934Z,36.71
2023-03-25T00:26:00.695Z,36.94
2023-03-25T00:28:33.386Z,36.83
2023-03-25T00:31:02.656Z,36.94
2023-03-25T00:33:30.002Z,36.77
2023-03-25T00:35:59.549Z,36.83
2023-03-25T00:38:35.006Z,36.91
2023-03-25T00:41:25.317Z,36.66
2023-03-25T00:43:53.934Z,36.77
2023-03-25T00:46:22.817Z,36.80
2023-03-25T00:48:50.770Z,36.80
2023-03-25T00:51:21.410Z,36.75
2023-03-25T00:53:54.152Z,36.75
2023-03-25T00:56:23.213Z,36.76
2023-03-25T00:58:50.804Z,36.79
2023-03-25T01:01:29.186Z,37.02
2023-03-25T01:03:58.963Z,36.87
2023-03-25T01:06:28.828Z,36.77
2023-03-25T01:08:59.609Z,36.95
2023-03-25T01:11:28.576Z,36.88
2023-03-25T01:13:57.520Z,36.72
2023-03-25T01:16:24.216Z,36.83
2023-03-25T01:18:51.202Z,36.80
2023-03-25T01:21:18.429Z,36.80
2023-03-25T01:23:44.996Z,36.77
2023-03-25T01:26:13.144Z,36.78
2023-03-25T01:28:41.619Z,36.83
2023-03-25T01:31:10.425Z,36.78
2023-03-25T01:33:37.354Z,36.88
2023-03-25T01:36:04.885Z,36.61
2023-03-25T01:38:31.490Z,36.80
2023-03-25T01:40:58.346Z,36.88
2023-03-25T01:43:25.172Z,36.85
2023-03-25T01:45:52.098Z,36.79
2023-03-25T01:48:32.869Z,36.73
2023-03-25T01:51:05.603Z,36.78
2023-03-25T01:53:33.260Z,36.70
2023-03-25T01:56:03.137Z,36.62
2023-03-25T01:58:31.584Z,36.60
2023-03-25T02:01:01.298Z,36.78
2023-03-25T02:03:30.869Z,36.60
2023-03-25T02:06:16.721Z,36.66
2023-03-25T02:08:44.019Z,36.64
2023-03-25T02:11:11.290Z,36.83
2023-03-25T02:13:41.162Z,36.69
2023-03-25T02:16:22.660Z,36.88
2023-03-25T02:19:28.043Z,36.64
2023-03-25T02:22:17.117Z,36.69
2023-03-25T02:25:02.017Z,36.83
2023-03-25T02:27:47.378Z,36.77
2023-03-25T02:30:20.419Z,36.54
2023-03-25T02:33:02.594Z,36.90
2023-03-25T02:35:49.792Z,36.88
2023-03-25T02:38:45.479Z,36.69
2023-03-25T02:41:47.888Z,36.74
2023-03-25T02:44:33.016Z,36.64
2023-03-25T02:47:06.066Z,36.52
2023-03-25T02:49:40.410Z,36.72
2023-03-25T02:52:13.650Z,36.73
2023-03-25T02:54:44.978Z,36.80
2023-03-25T02:57:16.932Z,36.67
2023-03-25T02:59:46.120Z,36.65
2023-03-25T03:02:14.764Z,36.65
2023-03-25T03:04:49.740Z,36.58
2023-03-25T03:07:24.349Z,36.55
2023-03-25T03:10:01.572Z,36.52
2023-03-25T03:12:52.183Z,36.70
2023-03-25T03:15:26.884Z,36.61
2023-03-25T03:18:01.968Z,36.65
2023-03-25T03:20:40.095Z,36.63
2023-03-25T03:23:29.590Z,36.74
2023-03-25T03:26:18.886Z,36.79
2023-03-25T03:28:57.868Z,36.55
2023-03-25T03:32:06.854Z,36.72
2023-03-25T03:34:48.202Z,36.29
2023-03-25T03:37:19.631Z,36.63
2023-03-25T03:39:48.765Z,36.57
2023-03-25T03:42:30.461Z,36.45
2023-03-25T03:45:03.239Z,36.58
2023-03-25T03:47:34.124Z,36.58
2023-03-25T03:50:07.137Z,36.50
2023-03-25T03:52:41.004Z,36.54
2023-03-25T03:55:14.048Z,36.47
2023-03-25T03:57:53.110Z,36.53
2023-03-25T04:00:29.588Z,36.35
2023-03-25T04:02:59.922Z,36.49
2023-03-25T04:05:30.876Z,36.47
2023-03-25T04:08:00.454Z,36.49
2023-03-25T04:10:42.379Z,36.57
2023-03-25T04:13:14.021Z,36.48
2023-03-25T04:15:42.633Z,36.49
2023-03-25T04:18:09.572Z,36.33
2023-03-25T04:20:36.689Z,36.46
2023-03-25T04:23:09.765Z,36.39
2023-03-25T04:25:36.437Z,36.32
2023-03-25T04:28:02.933Z,36.30
2023-03-25T04:30:31.024Z,36.26
2023-03-25T04:32:57.767Z,36.31
2023-03-25T04:35:25.799Z,36.28
2023-03-25T04:37:57.137Z,36.26
2023-03-25T04:40:25.676Z,36.37
2023-03-25T04:42:53.281Z,36.19
2023-03-25T04:45:20.419Z,36.25
2023-03-25T04:47:49.441Z,36.41
2023-03-25T04:52:38.105Z,36.25
2023-03-25T04:55:05.275Z,36.29
2023-03-25T04:59:50.968Z,36.27
2023-03-25T05:02:19.390Z,36.30
2023-03-25T05:04:47.304Z,36.46
2023-03-25T05:07:16.490Z,36.37
2023-03-25T05:09:43.347Z,36.39
2023-03-25T05:12:11.388Z,36.57
2023-03-25T05:14:38.134Z,36.52
2023-03-25T05:17:05.126Z,36.46
2023-03-25T05:19:34.839Z,36.36
2023-03-25T05:22:03.135Z,36.43
2023-03-25T05:24:30.396Z,36.59
2023-03-25T05:26:56.944Z,36.63
2023-03-25T05:29:23.966Z,36.52
2023-03-25T05:31:50.587Z,36.43
2023-03-25T05:34:17.487Z,36.54
2023-03-25T05:36:44.548Z,36.56
2023-03-25T05:39:11.201Z,36.43
2023-03-25T05:41:41.641Z,36.28
2023-03-25T05:44:14.836Z,36.58
2023-03-25T05:46:41.550Z,36.42
2023-03-25T05:49:08.371Z,36.37
2023-03-25T05:51:37.688Z,36.52
2023-03-25T05:54:10.603Z,36.52
2023-03-25T05:56:37.347Z,36.36
2023-03-25T05:59:03.963Z,36.55
2023-03-25T06:01:33.476Z,36.35
2023-03-25T06:04:02.646Z,36.39
2023-03-25T06:06:32.019Z,36.24
2023-03-25T06:09:02.800Z,36.24
2023-03-25T06:11:29.644Z,36.19
2023-03-25T06:13:56.581Z,36.11
2023-03-25T06:16:29.697Z,36.08
2023-03-25T06:18:59.522Z,36.05
2023-03-25T06:21:28.870Z,36.18
2023-03-25T06:23:57.703Z,36.23
2023-03-25T06:26:24.690Z,36.52
2023-03-25T06:28:51.471Z,36.50
2023-03-25T06:31:22.491Z,36.58
2023-03-25T06:33:50.622Z,36.72
2023-03-25T06:36:19.189Z,36.58
2023-03-25T06:38:50.725Z,36.70
2023-03-25T06:41:20.874Z,36.63
2023-03-25T06:43:59.394Z,36.64
2023-03-25T06:46:44.385Z,36.62
2023-03-25T06:49:11.028Z,36.65
2023-03-25T06:51:37.927Z,36.64
2023-03-25T06:54:04.902Z,36.75
2023-03-25T06:56:31.429Z,36.83
2023-03-25T06:58:58.087Z,36.83
2023-03-25T07:01:24.729Z,36.74
2023-03-25T07:03:51.480Z,36.82
2023-03-25T07:06:21.411Z,36.69
2023-03-25T07:08:48.782Z,36.87
2023-03-25T07:11:17.418Z,36.68
2023-03-25T07:13:44.253Z,36.87
2023-03-25T07:16:11.544Z,36.79
2023-03-25T07:18:41.480Z,36.93
2023-03-25T07:21:08.024Z,37.03
2023-03-25T07:23:35.300Z,36.96
2023-03-25T07:26:02.178Z,37.26
2023-03-25T07:28:28.874Z,37.52
2023-03-25T07:30:55.406Z,37.45
2023-03-25T07:33:22.049Z,37.41
2023-03-25T07:35:48.683Z,37.51
2023-03-25T07:38:15.485Z,37.43
2023-03-25T07:43:02.294Z,37.27
2023-03-25T07:45:55.071Z,37.14
2023-03-25T07:48:22.736Z,37.20
2023-03-25T07:50:51.928Z,37.09
2023-03-25T07:53:19.296Z,37.15
2023-03-25T07:55:46.501Z,37.04
2023-03-25T07:58:14.119Z,36.94
2023-03-25T08:00:40.666Z,36.94
2023-03-25T08:03:07.523Z,37.06
2023-03-25T08:05:34.168Z,37.11
2023-03-25T08:10:27.367Z,37.26
2023-03-25T08:12:54.270Z,37.16
2023-03-25T08:15:24.464Z,37.18
2023-03-25T08:17:54.531Z,36.94
2023-03-25T08:20:21.251Z,37.03
2023-03-25T08:22:48.033Z,37.48
2023-03-25T08:25:14.657Z,37.96
2023-03-25T08:27:41.495Z,37.95
2023-03-25T08:30:10.206Z,38.12
2023-03-25T08:32:38.753Z,38.11
2023-03-25T08:35:06.487Z,38.11
2023-03-25T08:37:37.638Z,38.09
2023-03-25T08:40:10.624Z,38.27
2023-03-25T08:42:38.272Z,38.70
2023-03-25T08:45:06.265Z,38.65
2023-03-25T08:47:33.033Z,38.71
2023-03-25T08:49:59.578Z,38.65
2023-03-25T08:52:26.157Z,38.54
2023-03-25T08:54:54.956Z,38.58
2023-03-25T08:57:21.645Z,38.44
2023-03-25T08:59:48.550Z,38.41
2023-03-25T09:02:15.405Z,38.40
2023-03-25T09:04:42.025Z,38.11
2023-03-25T09:07:12.572Z,38.10
2023-03-25T09:09:40.602Z,37.90
2023-03-25T09:12:08.034Z,38.04
2023-03-25T09:14:34.718Z,37.92
2023-03-25T09:17:01.293Z,37.69
2023-03-25T09:19:27.941Z,37.54
2023-03-25T09:21:54.507Z,37.51
2023-03-25T09:24:22.821Z,37.70
2023-03-25T09:26:49.607Z,37.98
2023-03-25T09:29:16.683Z,37.52
2023-03-25T09:31:43.749Z,37.41
2023-03-25T09:34:11.040Z,37.23
2023-03-25T09:36:37.774Z,37.11
2023-03-25T09:39:04.558Z,37.03
2023-03-25T09:42:08.418Z,36.96
2023-03-25T09:44:53.205Z,37.37
2023-03-25T09:47:22.261Z,38.27
2023-03-25T09:49:54.340Z,38.67
2023-03-25T09:52:29.283Z,38.89
2023-03-25T09:55:02.030Z,38.80
2023-03-25T09:57:33.299Z,38.61
2023-03-25T10:00:06.842Z,38.46
2023-03-25T10:02:52.277Z,38.28
2023-03-25T10:06:04.045Z,37.76
2023-03-25T10:09:00.765Z,37.72
2023-03-25T10:11:41.708Z,37.46
2023-03-25T10:14:19.329Z,37.25
2023-03-25T10:17:06.223Z,37.43
2023-03-25T10:19:38.915Z,37.64
2023-03-25T10:22:16.039Z,36.52
2023-03-25T10:24:50.148Z,35.70
2023-03-25T10:27:26.698Z,35.19
2023-03-25T10:29:56.357Z,34.73
2023-03-25T10:32:38.075Z,34.18
2023-03-25T10:35:10.290Z,33.68
2023-03-25T10:37:42.095Z,33.60
2023-03-25T10:40:53.395Z,33.24
2023-03-25T10:43:32.130Z,32.64
2023-03-25T10:46:08.526Z,32.12
2023-03-25T10:48:36.059Z,31.80
2023-03-25T10:53:28.360Z,31.35
2023-03-25T10:56:08.874Z,31.21
2023-03-25T10:58:38.785Z,31.21
2023-03-25T11:01:17.947Z,31.41
2023-03-25T11:03:49.183Z,31.41
2023-03-25T11:06:40.413Z,31.33
2023-03-25T11:09:13.939Z,31.23
2023-03-25T11:11:42.107Z,30.68
2023-03-25T11:14:08.715Z,30.40
2023-03-25T11:16:48.897Z,30.18
2023-03-25T11:19:27.046Z,30.47
2023-03-25T11:21:58.105Z,30.26
2023-03-25T11:24:34.573Z,30.24
2023-03-25T11:27:02.036Z,30.37
2023-03-25T11:29:29.334Z,30.61
2023-03-25T11:32:08.032Z,30.67
2023-03-25T11:34:41.942Z,30.44
2023-03-25T11:37:22.051Z,30.54
2023-03-25T11:39:55.576Z,30.62
2023-03-25T11:42:28.906Z,30.64
2023-03-25T11:44:59.428Z,30.72
2023-03-25T11:47:30.713Z,30.75
2023-03-25T11:49:57.741Z,31.72
2023-03-25T11:52:27.534Z,32.69
2023-03-25T11:54:56.004Z,33.45
2023-03-25T11:57:38.954Z,33.89
2023-03-25T12:00:29.457Z,34.21
2023-03-25T12:03:06.530Z,34.63
2023-03-25T12:05:35.454Z,34.96
2023-03-25T12:08:16.005Z,35.77
2023-03-25T12:11:00.714Z,36.40
2023-03-25T12:13:39.476Z,36.77
2023-03-25T12:16:24.810Z,36.87
2023-03-25T12:19:00.129Z,36.95
2023-03-25T12:21:35.722Z,36.97
2023-03-25T12:24:17.208Z,37.62
2023-03-25T12:27:04.894Z,38.05
2023-03-25T12:30:00.358Z,38.67
2023-03-25T12:32:35.548Z,39.11
2023-03-25T12:35:28.316Z,39.83
2023-03-25T12:38:22.625Z,40.56
2023-03-25T12:41:11.637Z,40.45
2023-03-25T12:43:59.973Z,40.51
2023-03-25T12:46:57.289Z,40.45
2023-03-25T12:49:32.175Z,40.45
2023-03-25T12:52:14.098Z,40.63
2023-03-25T12:55:08.785Z,40.37
2023-03-25T12:57:45.951Z,40.93
2023-03-25T13:00:45.216Z,41.44
2023-03-25T13:03:20.586Z,41.82
2023-03-25T13:06:11.964Z,41.97
2023-03-25T13:08:50.231Z,42.00
2023-03-25T13:11:28.800Z,42.32
2023-03-25T13:13:59.708Z,42.00
2023-03-25T13:16:29.141Z,41.94
2023-03-25T13:19:08.660Z,38.75
2023-03-25T13:21:43.757Z,37.12
2023-03-25T13:24:21.562Z,35.71
2023-03-25T13:26:50.116Z,34.97
2023-03-25T13:29:43.328Z,35.41
2023-03-25T13:32:18.794Z,39.85
2023-03-25T13:34:59.380Z,40.36
2023-03-25T13:37:36.323Z,40.13
2023-03-25T13:40:18.606Z,39.86
2023-03-25T13:42:45.789Z,39.05
2023-03-25T13:45:21.073Z,39.06
2023-03-25T13:48:04.972Z,39.82
2023-03-25T13:50:35.155Z,40.08
2023-03-25T13:53:18.213Z,39.41
2023-03-25T13:55:58.656Z,39.39
2023-03-25T13:58:38.277Z,38.65
2023-03-25T14:01:31.042Z,38.14
2023-03-25T14:04:16.407Z,37.73
2023-03-25T14:07:12.406Z,37.50
2023-03-25T14:10:15.538Z,37.31
2023-03-25T14:12:57.074Z,37.14
2023-03-25T14:15:30.135Z,37.34
2023-03-25T14:17:57.869Z,37.36
2023-03-25T14:20:32.277Z,37.23
2023-03-25T14:23:04.326Z,37.27
2023-03-25T14:25:34.086Z,37.36
2023-03-25T14:28:03.521Z,37.24
2023-03-25T14:30:34.612Z,37.18
2023-03-25T14:33:04.986Z,37.68
2023-03-25T14:35:31.753Z,37.71
2023-03-25T14:38:11.467Z,37.85
2023-03-25T14:41:01.479Z,37.70
2023-03-25T14:43:36.273Z,37.94
2023-03-25T14:46:18.375Z,38.03
2023-03-25T14:49:05.825Z,37.93
2023-03-25T14:51:34.915Z,37.83
2023-03-25T14:54:16.736Z,37.55
2023-03-25T14:56:56.839Z,37.56
2023-03-25T14:59:30.916Z,37.59
2023-03-25T15:02:04.701Z,37.83
2023-03-25T15:04:37.879Z,37.76
2023-03-25T15:07:11.850Z,37.90
2023-03-25T15:09:49.669Z,37.58
2023-03-25T15:12:21.221Z,37.74
2023-03-25T15:14:50.778Z,37.97
2023-03-25T15:17:47.322Z,37.78
2023-03-25T15:20:29.440Z,37.79
2023-03-25T15:23:18.097Z,37.99
2023-03-25T15:25:50.451Z,37.78
2023-03-25T15:28:52.011Z,38.05
2023-03-25T15:31:24.746Z,38.37
2023-03-25T15:34:06.854Z,38.48
2023-03-25T15:36:43.452Z,38.75
2023-03-25T15:39:31.910Z,39.02
2023-03-25T15:42:11.406Z,39.17
2023-03-25T15:45:00.658Z,38.84
2023-03-25T15:47:33.371Z,38.84
2023-03-25T15:50:22.125Z,38.74
2023-03-25T15:53:08.607Z,38.48
2023-03-25T15:55:39.605Z,38.55
2023-03-25T15:58:13.875Z,38.61
2023-03-25T16:00:52.172Z,38.70
2023-03-25T16:03:27.220Z,38.63
2023-03-25T16:05:57.212Z,38.49
2023-03-25T16:08:55.589Z,38.30
2023-03-25T16:11:22.446Z,38.12
2023-03-25T16:14:21.306Z,37.99
2023-03-25T16:16:55.931Z,37.75
2023-03-25T16:19:27.082Z,37.56
2023-03-25T16:21:54.947Z,37.53
2023-03-25T16:24:26.494Z,37.32
2023-03-25T16:26:54.466Z,37.06
2023-03-25T16:29:23.977Z,37.13
2023-03-25T16:32:01.641Z,37.11
2023-03-25T16:34:34.596Z,37.08
2023-03-25T16:37:02.651Z,37.17
2023-03-25T16:39:33.177Z,37.00
2023-03-25T16:42:10.680Z,38.25
2023-03-25T16:44:37.946Z,39.23
2023-03-25T16:47:05.743Z,40.23
2023-03-25T16:49:38.001Z,40.82
2023-03-25T16:52:15.957Z,41.09
2023-03-25T16:55:04.866Z,41.31
2023-03-25T16:57:39.359Z,41.50
2023-03-25T17:00:19.503Z,41.82
2023-03-25T17:02:48.525Z,41.95
2023-03-25T17:05:21.329Z,41.92
2023-03-25T17:07:58.219Z,41.91
2023-03-25T17:10:29.184Z,41.80
2023-03-25T17:13:02.934Z,41.71
2023-03-25T17:15:34.512Z,41.63
2023-03-25T17:18:03.919Z,42.32
2023-03-25T17:20:36.578Z,41.72
2023-03-25T17:23:10.138Z,41.56
2023-03-25T17:25:48.307Z,41.17
2023-03-25T17:28:29.815Z,41.26
2023-03-25T17:30:57.088Z,41.17
2023-03-25T17:33:30.067Z,41.04
2023-03-25T17:35:57.594Z,40.90
2023-03-25T17:38:49.051Z,40.37
2023-03-25T17:41:17.888Z,40.03
2023-03-25T17:43:50.705Z,40.00
2023-03-25T17:46:23.349Z,39.88
2023-03-25T17:48:53.511Z,39.88
2023-03-25T17:51:21.096Z,40.01
2023-03-25T17:53:49.295Z,39.87
2023-03-25T17:56:25.077Z,40.03
2023-03-25T17:59:01.912Z,39.68
2023-03-25T18:01:30.768Z,39.97
2023-03-25T18:03:57.334Z,40.16
2023-03-25T18:06:24.586Z,40.54
2023-03-25T18:08:51.579Z,40.74
2023-03-25T18:11:18.202Z,40.81
2023-03-25T18:13:48.438Z,40.83
2023-03-25T18:16:20.838Z,40.89
2023-03-25T18:18:48.000Z,41.02
2023-03-25T18:21:17.290Z,41.36
2023-03-25T18:23:47.643Z,41.26
2023-03-25T18:26:17.432Z,41.07
2023-03-25T18:28:46.163Z,41.21
2023-03-25T18:31:17.226Z,41.15
2023-03-25T18:33:46.298Z,41.05
2023-03-25T18:36:13.326Z,41.11
2023-03-25T18:38:41.088Z,40.89
2023-03-25T18:41:10.866Z,40.96
2023-03-25T18:43:37.409Z,40.97
2023-03-25T18:46:04.350Z,40.78
2023-03-25T18:48:31.223Z,41.10
2023-03-25T18:50:59.449Z,40.89
2023-03-25T18:53:28.723Z,40.77
2023-03-25T18:56:00.948Z,40.65
2023-03-25T18:58:32.913Z,40.59
2023-03-25T19:01:01.709Z,40.69
2023-03-25T19:03:38.745Z,40.53
2023-03-25T19:06:09.517Z,40.50
2023-03-25T19:08:37.011Z,40.60
2023-03-25T19:11:18.879Z,40.60
2023-03-25T19:13:47.993Z,40.12
2023-03-25T19:16:14.623Z,40.15
2023-03-25T19:18:41.316Z,39.95
2023-03-25T19:21:08.110Z,39.96
2023-03-25T19:23:36.442Z,39.92
2023-03-25T19:26:03.417Z,39.69
2023-03-25T19:28:32.335Z,39.85
2023-03-25T19:31:01.306Z,39.65
2023-03-25T19:33:31.089Z,39.47
2023-03-25T19:36:01.748Z,39.49
2023-03-25T19:38:30.049Z,39.45
2023-03-25T19:41:03.542Z,39.33
2023-03-25T19:43:31.405Z,39.36
2023-03-25T19:45:59.616Z,39.21
2023-03-25T19:48:27.485Z,39.30
2023-03-25T19:50:58.519Z,39.28
2023-03-25T19:53:33.584Z,39.39
2023-03-25T19:56:10.991Z,39.28
2023-03-25T19:58:37.828Z,39.39
2023-03-25T20:01:09.147Z,39.46
2023-03-25T20:03:44.198Z,39.36
2023-03-25T20:06:23.417Z,39.35
2023-03-25T20:09:00.985Z,39.38
2023-03-25T20:11:31.547Z,39.25
2023-03-25T20:13:58.286Z,39.13
2023-03-25T20:16:28.421Z,39.32
2023-03-25T20:18:55.364Z,39.08
2023-03-25T20:23:40.593Z,38.93
2023-03-25T20:26:08.124Z,38.85
2023-03-25T20:28:36.179Z,38.78
2023-03-25T20:31:19.896Z,38.89
2023-03-25T20:33:53.285Z,38.58
2023-03-25T20:36:31.707Z,38.71
2023-03-25T20:39:05.700Z,38.48
2023-03-25T20:41:33.808Z,38.43
2023-03-25T20:44:06.097Z,38.34
2023-03-25T20:46:51.600Z,38.62
2023-03-25T20:49:31.058Z,38.31
2023-03-25T20:52:10.104Z,38.28
2023-03-25T20:54:52.645Z,38.31
2023-03-25T20:57:27.794Z,38.23
2023-03-25T20:59:56.557Z,38.14
2023-03-25T21:02:24.121Z,38.28
2023-03-25T21:05:06.658Z,38.24
2023-03-25T21:07:41.024Z,38.31
2023-03-25T21:10:16.586Z,38.11
2023-03-25T21:12:48.894Z,38.25
2023-03-25T21:15:26.648Z,38.03
2023-03-25T21:17:54.207Z,38.15
2023-03-25T21:20:24.079Z,38.23
2023-03-25T21:22:51.149Z,37.98
2023-03-25T21:25:19.796Z,38.14
2023-03-25T21:27:46.868Z,38.18
2023-03-25T21:30:16.960Z,37.97
2023-03-25T21:32:43.604Z,38.16
2023-03-25T21:35:10.655Z,38.64
2023-03-25T21:37:39.056Z,39.19
2023-03-25T21:40:10.032Z,39.29
2023-03-25T21:42:41.311Z,39.85
2023-03-25T21:45:11.136Z,39.93
2023-03-25T21:49:51.567Z,40.14
2023-03-25T21:52:18.177Z,40.06
2023-03-25T21:54:49.821Z,39.80
2023-03-25T21:57:16.763Z,39.87
2023-03-25T21:59:43.748Z,40.01
2023-03-25T22:02:14.609Z,39.63
2023-03-25T22:04:41.720Z,39.63
2023-03-25T22:07:08.483Z,39.36
2023-03-25T22:09:35.135Z,39.30
2023-03-25T22:12:01.668Z,39.13
2023-03-25T22:14:28.320Z,39.04
2023-03-25T22:16:54.980Z,38.92
2023-03-25T22:19:23.985Z,38.68
2023-03-25T22:21:51.618Z,38.82
2023-03-25T22:24:18.376Z,38.76
2023-03-25T22:26:45.191Z,38.38
2023-03-25T22:29:13.327Z,38.35
2023-03-25T22:31:40.714Z,38.18
2023-03-25T22:34:14.946Z,38.18
2023-03-25T22:36:49.013Z,38.02
2023-03-25T22:39:18.223Z,37.89
2023-03-25T22:41:45.243Z,37.73
2023-03-25T22:44:13.313Z,37.82
2023-03-25T22:46:40.482Z,37.71
2023-03-25T22:49:07.227Z,37.34
2023-03-25T22:51:34.293Z,37.38
2023-03-25T22:54:02.170Z,37.32
2023-03-25T22:56:33.723Z,37.46
2023-03-25T22:59:01.732Z,37.38
2023-03-25T23:01:29.377Z,37.41
2023-03-25T23:03:59.971Z,37.18
2023-03-25T23:06:27.053Z,37.27
2023-03-25T23:08:59.864Z,37.04
2023-03-25T23:11:28.803Z,37.07
2023-03-25T23:14:06.095Z,37.29
2023-03-25T23:16:36.803Z,37.13
2023-03-25T23:19:06.200Z,37.00
2023-03-25T23:21:33.926Z,37.25
2023-03-25T23:24:03.200Z,36.86
2023-03-25T23:26:37.146Z,36.99
2023-03-25T23:29:08.738Z,37.04
2023-03-25T23:31:41.772Z,36.92
2023-03-25T23:34:12.502Z,36.98
2023-03-25T23:36:39.900Z,37.07
2023-03-25T23:39:10.194Z,36.98
2023-03-25T23:41:37.507Z,37.08
2023-03-25T23:44:05.724Z,36.69
2023-03-25T23:46:33.168Z,36.88
2023-03-25T23:49:02.633Z,36.85
2023-03-25T23:51:33.086Z,36.84
2023-03-25T23:54:00.561Z,36.70
2023-03-25T23:56:27.109Z,36.95
2023-03-25T23:58:53.864Z,36.68
